sensor_id;sensor_type;location;lat;lon;timestamp;P1;durP1;ratioP1;P2;durP2;ratioP2
15645;SDS011;7922;43.622;1.476;2023-11-19T00:01:21;13.80;;;12.30;;
15645;SDS011;7922;43.622;1.476;2023-11-19T00:03:46;14.63;;;12.80;;
15645;SDS011;7922;43.622;1.476;2023-11-19T00:06:11;15.97;;;12.90;;
15645;SDS011;7922;43.622;1.476;2023-11-19T00:08:36;15.33;;;12.30;;
15645;SDS011;7922;43.622;1.476;2023-11-19T00:11:02;13.33;;;11.90;;
15645;SDS011;7922;43.622;1.476;2023-11-19T00:13:30;16.47;;;12.27;;
15645;SDS011;7922;43.622;1.476;2023-11-19T00:15:55;15.97;;;12.80;;
15645;SDS011;7922;43.622;1.476;2023-11-19T00:18:20;17.30;;;12.23;;
15645;SDS011;7922;43.622;1.476;2023-11-19T00:20:46;15.57;;;12.53;;
15645;SDS011;7922;43.622;1.476;2023-11-19T00:23:11;16.40;;;12.93;;
15645;SDS011;7922;43.622;1.476;2023-11-19T00:25:39;16.30;;;13.03;;
15645;SDS011;7922;43.622;1.476;2023-11-19T00:28:04;16.97;;;13.10;;
15645;SDS011;7922;43.622;1.476;2023-11-19T00:30:29;13.93;;;12.43;;
15645;SDS011;7922;43.622;1.476;2023-11-19T00:32:55;14.83;;;12.67;;
15645;SDS011;7922;43.622;1.476;2023-11-19T00:35:20;14.17;;;11.50;;
15645;SDS011;7922;43.622;1.476;2023-11-19T00:37:45;13.53;;;11.43;;
15645;SDS011;7922;43.622;1.476;2023-11-19T00:40:11;14.73;;;11.40;;
15645;SDS011;7922;43.622;1.476;2023-11-19T00:42:36;14.90;;;12.13;;
15645;SDS011;7922;43.622;1.476;2023-11-19T00:45:02;13.20;;;11.73;;
15645;SDS011;7922;43.622;1.476;2023-11-19T00:47:30;14.17;;;11.27;;
15645;SDS011;7922;43.622;1.476;2023-11-19T00:49:55;12.50;;;11.10;;
15645;SDS011;7922;43.622;1.476;2023-11-19T00:52:20;13.40;;;11.97;;
15645;SDS011;7922;43.622;1.476;2023-11-19T00:54:45;15.23;;;12.03;;
15645;SDS011;7922;43.622;1.476;2023-11-19T00:57:11;13.90;;;11.63;;
15645;SDS011;7922;43.622;1.476;2023-11-19T00:59:36;14.00;;;11.83;;
15645;SDS011;7922;43.622;1.476;2023-11-19T01:02:01;13.67;;;12.20;;
15645;SDS011;7922;43.622;1.476;2023-11-19T01:04:26;12.63;;;11.33;;
15645;SDS011;7922;43.622;1.476;2023-11-19T01:06:52;15.07;;;10.90;;
15645;SDS011;7922;43.622;1.476;2023-11-19T01:09:17;13.00;;;11.10;;
15645;SDS011;7922;43.622;1.476;2023-11-19T01:11:42;13.13;;;11.13;;
15645;SDS011;7922;43.622;1.476;2023-11-19T01:14:08;14.70;;;11.37;;
15645;SDS011;7922;43.622;1.476;2023-11-19T01:16:33;12.67;;;11.37;;
15645;SDS011;7922;43.622;1.476;2023-11-19T01:18:58;14.37;;;11.80;;
15645;SDS011;7922;43.622;1.476;2023-11-19T01:21:23;12.57;;;11.27;;
15645;SDS011;7922;43.622;1.476;2023-11-19T01:23:49;15.73;;;11.70;;
15645;SDS011;7922;43.622;1.476;2023-11-19T01:26:14;12.87;;;11.57;;
15645;SDS011;7922;43.622;1.476;2023-11-19T01:28:39;15.00;;;10.73;;
15645;SDS011;7922;43.622;1.476;2023-11-19T01:31:07;12.60;;;11.30;;
15645;SDS011;7922;43.622;1.476;2023-11-19T01:33:33;14.03;;;11.50;;
15645;SDS011;7922;43.622;1.476;2023-11-19T01:35:58;13.97;;;11.87;;
15645;SDS011;7922;43.622;1.476;2023-11-19T01:38:23;13.97;;;11.37;;
15645;SDS011;7922;43.622;1.476;2023-11-19T01:40:48;12.80;;;11.00;;
15645;SDS011;7922;43.622;1.476;2023-11-19T01:43:30;12.77;;;11.23;;
15645;SDS011;7922;43.622;1.476;2023-11-19T01:46:05;13.83;;;11.93;;
15645;SDS011;7922;43.622;1.476;2023-11-19T01:48:31;13.47;;;11.70;;
15645;SDS011;7922;43.622;1.476;2023-11-19T01:50:58;14.83;;;11.30;;
15645;SDS011;7922;43.622;1.476;2023-11-19T01:53:24;13.10;;;11.70;;
15645;SDS011;7922;43.622;1.476;2023-11-19T01:55:50;13.43;;;11.50;;
15645;SDS011;7922;43.622;1.476;2023-11-19T01:58:16;13.67;;;11.00;;
15645;SDS011;7922;43.622;1.476;2023-11-19T02:00:42;12.77;;;11.37;;
15645;SDS011;7922;43.622;1.476;2023-11-19T02:03:09;13.90;;;11.67;;
15645;SDS011;7922;43.622;1.476;2023-11-19T02:05:36;13.33;;;11.30;;
15645;SDS011;7922;43.622;1.476;2023-11-19T02:08:02;15.10;;;11.50;;
15645;SDS011;7922;43.622;1.476;2023-11-19T02:10:27;13.30;;;11.90;;
15645;SDS011;7922;43.622;1.476;2023-11-19T02:12:52;15.13;;;10.63;;
15645;SDS011;7922;43.622;1.476;2023-11-19T02:15:18;14.57;;;11.50;;
15645;SDS011;7922;43.622;1.476;2023-11-19T02:17:43;12.77;;;11.47;;
15645;SDS011;7922;43.622;1.476;2023-11-19T02:20:08;13.73;;;11.47;;
15645;SDS011;7922;43.622;1.476;2023-11-19T02:22:34;13.63;;;11.67;;
15645;SDS011;7922;43.622;1.476;2023-11-19T02:25:00;12.53;;;11.33;;
15645;SDS011;7922;43.622;1.476;2023-11-19T02:30:15;12.63;;;11.30;;
15645;SDS011;7922;43.622;1.476;2023-11-19T02:32:41;14.93;;;12.57;;
15645;SDS011;7922;43.622;1.476;2023-11-19T02:35:07;13.73;;;12.30;;
15645;SDS011;7922;43.622;1.476;2023-11-19T02:37:32;15.93;;;12.40;;
15645;SDS011;7922;43.622;1.476;2023-11-19T02:39:57;14.50;;;11.70;;
15645;SDS011;7922;43.622;1.476;2023-11-19T02:42:23;17.23;;;13.27;;
15645;SDS011;7922;43.622;1.476;2023-11-19T02:44:48;16.23;;;12.70;;
15645;SDS011;7922;43.622;1.476;2023-11-19T02:47:13;15.07;;;11.63;;
15645;SDS011;7922;43.622;1.476;2023-11-19T02:49:38;15.27;;;12.00;;
15645;SDS011;7922;43.622;1.476;2023-11-19T02:52:04;15.57;;;11.70;;
15645;SDS011;7922;43.622;1.476;2023-11-19T02:54:29;13.70;;;11.47;;
15645;SDS011;7922;43.622;1.476;2023-11-19T02:56:55;15.23;;;12.03;;
15645;SDS011;7922;43.622;1.476;2023-11-19T02:59:20;16.30;;;12.63;;
15645;SDS011;7922;43.622;1.476;2023-11-19T03:01:46;25.87;;;13.23;;
15645;SDS011;7922;43.622;1.476;2023-11-19T03:04:11;15.43;;;12.20;;
15645;SDS011;7922;43.622;1.476;2023-11-19T03:06:36;14.10;;;11.53;;
15645;SDS011;7922;43.622;1.476;2023-11-19T03:09:01;14.70;;;11.47;;
15645;SDS011;7922;43.622;1.476;2023-11-19T03:11:27;17.03;;;12.53;;
15645;SDS011;7922;43.622;1.476;2023-11-19T03:13:52;14.17;;;11.67;;
15645;SDS011;7922;43.622;1.476;2023-11-19T03:16:17;15.07;;;12.13;;
15645;SDS011;7922;43.622;1.476;2023-11-19T03:18:43;14.43;;;11.53;;
15645;SDS011;7922;43.622;1.476;2023-11-19T03:21:08;15.03;;;12.47;;
15645;SDS011;7922;43.622;1.476;2023-11-19T03:23:33;15.60;;;11.80;;
15645;SDS011;7922;43.622;1.476;2023-11-19T03:25:59;13.00;;;11.57;;
15645;SDS011;7922;43.622;1.476;2023-11-19T03:28:24;13.40;;;11.40;;
15645;SDS011;7922;43.622;1.476;2023-11-19T03:30:50;15.63;;;12.43;;
15645;SDS011;7922;43.622;1.476;2023-11-19T03:33:15;13.53;;;11.37;;
15645;SDS011;7922;43.622;1.476;2023-11-19T03:35:40;14.43;;;12.30;;
15645;SDS011;7922;43.622;1.476;2023-11-19T03:38:05;16.03;;;12.57;;
15645;SDS011;7922;43.622;1.476;2023-11-19T03:40:31;15.30;;;12.13;;
15645;SDS011;7922;43.622;1.476;2023-11-19T03:42:56;14.67;;;11.70;;
15645;SDS011;7922;43.622;1.476;2023-11-19T03:45:22;14.63;;;11.77;;
15645;SDS011;7922;43.622;1.476;2023-11-19T03:47:47;12.83;;;10.80;;
15645;SDS011;7922;43.622;1.476;2023-11-19T03:50:12;15.80;;;11.87;;
15645;SDS011;7922;43.622;1.476;2023-11-19T03:52:37;12.93;;;11.40;;
15645;SDS011;7922;43.622;1.476;2023-11-19T03:55:03;15.23;;;10.73;;
15645;SDS011;7922;43.622;1.476;2023-11-19T03:57:29;12.80;;;11.17;;
15645;SDS011;7922;43.622;1.476;2023-11-19T03:59:54;13.13;;;11.30;;
15645;SDS011;7922;43.622;1.476;2023-11-19T04:02:19;13.83;;;10.73;;
15645;SDS011;7922;43.622;1.476;2023-11-19T04:04:45;14.20;;;11.27;;
15645;SDS011;7922;43.622;1.476;2023-11-19T04:07:10;15.13;;;11.80;;
15645;SDS011;7922;43.622;1.476;2023-11-19T04:09:35;13.00;;;11.53;;
15645;SDS011;7922;43.622;1.476;2023-11-19T04:12:00;14.93;;;12.20;;
15645;SDS011;7922;43.622;1.476;2023-11-19T04:14:26;13.17;;;11.13;;
15645;SDS011;7922;43.622;1.476;2023-11-19T04:16:52;12.17;;;10.87;;
15645;SDS011;7922;43.622;1.476;2023-11-19T04:19:18;14.53;;;11.90;;
15645;SDS011;7922;43.622;1.476;2023-11-19T04:21:44;12.83;;;11.23;;
15645;SDS011;7922;43.622;1.476;2023-11-19T04:24:09;12.93;;;10.80;;
15645;SDS011;7922;43.622;1.476;2023-11-19T04:26:34;13.83;;;10.90;;
15645;SDS011;7922;43.622;1.476;2023-11-19T04:29:00;12.20;;;10.17;;
15645;SDS011;7922;43.622;1.476;2023-11-19T04:31:29;12.23;;;10.17;;
15645;SDS011;7922;43.622;1.476;2023-11-19T04:33:54;10.47;;;9.47;;
15645;SDS011;7922;43.622;1.476;2023-11-19T04:36:20;11.87;;;9.70;;
15645;SDS011;7922;43.622;1.476;2023-11-19T04:38:45;16.63;;;10.73;;
15645;SDS011;7922;43.622;1.476;2023-11-19T04:41:10;12.90;;;9.90;;
15645;SDS011;7922;43.622;1.476;2023-11-19T04:43:35;12.63;;;9.67;;
15645;SDS011;7922;43.622;1.476;2023-11-19T04:46:03;10.30;;;9.30;;
15645;SDS011;7922;43.622;1.476;2023-11-19T04:48:29;12.07;;;10.80;;
15645;SDS011;7922;43.622;1.476;2023-11-19T04:50:54;10.93;;;9.83;;
15645;SDS011;7922;43.622;1.476;2023-11-19T04:53:19;11.70;;;9.70;;
15645;SDS011;7922;43.622;1.476;2023-11-19T04:55:44;10.97;;;9.63;;
15645;SDS011;7922;43.622;1.476;2023-11-19T04:58:10;10.57;;;9.47;;
15645;SDS011;7922;43.622;1.476;2023-11-19T05:00:35;12.93;;;10.37;;
15645;SDS011;7922;43.622;1.476;2023-11-19T05:03:00;10.70;;;9.60;;
15645;SDS011;7922;43.622;1.476;2023-11-19T05:05:26;12.00;;;9.50;;
15645;SDS011;7922;43.622;1.476;2023-11-19T05:07:51;10.93;;;9.80;;
15645;SDS011;7922;43.622;1.476;2023-11-19T05:10:16;11.63;;;10.43;;
15645;SDS011;7922;43.622;1.476;2023-11-19T05:12:41;12.27;;;10.97;;
15645;SDS011;7922;43.622;1.476;2023-11-19T05:15:07;12.57;;;10.03;;
15645;SDS011;7922;43.622;1.476;2023-11-19T05:17:33;12.40;;;10.40;;
15645;SDS011;7922;43.622;1.476;2023-11-19T05:19:58;12.33;;;10.77;;
15645;SDS011;7922;43.622;1.476;2023-11-19T05:22:23;14.30;;;11.07;;
15645;SDS011;7922;43.622;1.476;2023-11-19T05:24:49;11.50;;;10.17;;
15645;SDS011;7922;43.622;1.476;2023-11-19T05:27:14;13.43;;;10.17;;
15645;SDS011;7922;43.622;1.476;2023-11-19T05:29:39;11.57;;;10.23;;
15645;SDS011;7922;43.622;1.476;2023-11-19T05:32:05;12.90;;;10.47;;
15645;SDS011;7922;43.622;1.476;2023-11-19T05:34:30;13.00;;;10.47;;
15645;SDS011;7922;43.622;1.476;2023-11-19T05:36:55;13.00;;;11.00;;
15645;SDS011;7922;43.622;1.476;2023-11-19T05:39:21;12.00;;;10.50;;
15645;SDS011;7922;43.622;1.476;2023-11-19T05:41:46;13.70;;;11.20;;
15645;SDS011;7922;43.622;1.476;2023-11-19T05:44:11;14.03;;;11.20;;
15645;SDS011;7922;43.622;1.476;2023-11-19T05:46:37;11.77;;;10.57;;
15645;SDS011;7922;43.622;1.476;2023-11-19T05:49:02;13.63;;;10.83;;
15645;SDS011;7922;43.622;1.476;2023-11-19T05:51:27;12.30;;;11.00;;
15645;SDS011;7922;43.622;1.476;2023-11-19T05:53:52;13.20;;;10.33;;
15645;SDS011;7922;43.622;1.476;2023-11-19T05:56:18;12.67;;;10.70;;
15645;SDS011;7922;43.622;1.476;2023-11-19T05:58:43;12.73;;;11.50;;
15645;SDS011;7922;43.622;1.476;2023-11-19T06:01:08;12.23;;;9.90;;
15645;SDS011;7922;43.622;1.476;2023-11-19T06:03:33;13.70;;;10.23;;
15645;SDS011;7922;43.622;1.476;2023-11-19T06:05:59;12.60;;;10.43;;
15645;SDS011;7922;43.622;1.476;2023-11-19T06:08:24;11.07;;;9.67;;
15645;SDS011;7922;43.622;1.476;2023-11-19T06:10:49;12.20;;;9.80;;
15645;SDS011;7922;43.622;1.476;2023-11-19T06:13:15;14.03;;;9.97;;
15645;SDS011;7922;43.622;1.476;2023-11-19T06:15:40;11.00;;;9.80;;
15645;SDS011;7922;43.622;1.476;2023-11-19T06:18:09;11.60;;;9.47;;
15645;SDS011;7922;43.622;1.476;2023-11-19T06:20:35;11.60;;;9.80;;
15645;SDS011;7922;43.622;1.476;2023-11-19T06:23:00;10.77;;;9.70;;
15645;SDS011;7922;43.622;1.476;2023-11-19T06:25:25;10.77;;;9.57;;
15645;SDS011;7922;43.622;1.476;2023-11-19T06:27:51;10.30;;;9.30;;
15645;SDS011;7922;43.622;1.476;2023-11-19T06:30:17;10.93;;;8.97;;
15645;SDS011;7922;43.622;1.476;2023-11-19T06:32:43;10.53;;;8.70;;
15645;SDS011;7922;43.622;1.476;2023-11-19T06:35:09;10.63;;;9.07;;
15645;SDS011;7922;43.622;1.476;2023-11-19T06:37:34;9.90;;;8.60;;
15645;SDS011;7922;43.622;1.476;2023-11-19T06:39:59;11.70;;;8.80;;
15645;SDS011;7922;43.622;1.476;2023-11-19T06:42:25;11.87;;;10.57;;
15645;SDS011;7922;43.622;1.476;2023-11-19T06:44:50;11.40;;;10.13;;
15645;SDS011;7922;43.622;1.476;2023-11-19T06:47:15;10.10;;;9.10;;
15645;SDS011;7922;43.622;1.476;2023-11-19T06:49:43;12.83;;;9.60;;
15645;SDS011;7922;43.622;1.476;2023-11-19T06:52:09;10.53;;;9.17;;
15645;SDS011;7922;43.622;1.476;2023-11-19T06:54:34;10.50;;;9.40;;
15645;SDS011;7922;43.622;1.476;2023-11-19T06:56:59;10.37;;;9.27;;
15645;SDS011;7922;43.622;1.476;2023-11-19T06:59:25;9.10;;;8.20;;
15645;SDS011;7922;43.622;1.476;2023-11-19T07:01:50;10.57;;;8.60;;
15645;SDS011;7922;43.622;1.476;2023-11-19T07:04:15;10.17;;;9.03;;
15645;SDS011;7922;43.622;1.476;2023-11-19T07:06:41;11.07;;;8.53;;
15645;SDS011;7922;43.622;1.476;2023-11-19T07:09:06;10.07;;;8.77;;
15645;SDS011;7922;43.622;1.476;2023-11-19T07:11:32;9.43;;;8.47;;
15645;SDS011;7922;43.622;1.476;2023-11-19T07:13:57;11.60;;;8.67;;
15645;SDS011;7922;43.622;1.476;2023-11-19T07:16:22;12.40;;;8.33;;
15645;SDS011;7922;43.622;1.476;2023-11-19T07:18:48;10.57;;;8.37;;
15645;SDS011;7922;43.622;1.476;2023-11-19T07:21:13;10.60;;;8.57;;
15645;SDS011;7922;43.622;1.476;2023-11-19T07:23:39;11.63;;;7.87;;
15645;SDS011;7922;43.622;1.476;2023-11-19T07:26:05;9.33;;;8.33;;
15645;SDS011;7922;43.622;1.476;2023-11-19T07:28:31;9.03;;;7.53;;
15645;SDS011;7922;43.622;1.476;2023-11-19T07:30:56;9.23;;;8.27;;
15645;SDS011;7922;43.622;1.476;2023-11-19T07:33:21;8.93;;;8.00;;
15645;SDS011;7922;43.622;1.476;2023-11-19T07:35:46;10.50;;;8.03;;
15645;SDS011;7922;43.622;1.476;2023-11-19T07:38:12;9.93;;;8.33;;
15645;SDS011;7922;43.622;1.476;2023-11-19T07:40:37;8.57;;;7.73;;
15645;SDS011;7922;43.622;1.476;2023-11-19T07:43:02;9.37;;;8.13;;
15645;SDS011;7922;43.622;1.476;2023-11-19T07:45:27;10.33;;;8.50;;
15645;SDS011;7922;43.622;1.476;2023-11-19T07:47:53;9.63;;;8.63;;
15645;SDS011;7922;43.622;1.476;2023-11-19T07:50:18;10.40;;;9.20;;
15645;SDS011;7922;43.622;1.476;2023-11-19T07:52:43;11.67;;;9.20;;
15645;SDS011;7922;43.622;1.476;2023-11-19T07:55:09;10.47;;;9.20;;
15645;SDS011;7922;43.622;1.476;2023-11-19T07:57:34;10.50;;;9.27;;
15645;SDS011;7922;43.622;1.476;2023-11-19T07:59:59;11.50;;;9.63;;
15645;SDS011;7922;43.622;1.476;2023-11-19T08:02:25;10.20;;;9.03;;
15645;SDS011;7922;43.622;1.476;2023-11-19T08:04:50;10.50;;;9.40;;
15645;SDS011;7922;43.622;1.476;2023-11-19T08:07:15;11.73;;;9.43;;
15645;SDS011;7922;43.622;1.476;2023-11-19T08:09:40;12.07;;;9.67;;
15645;SDS011;7922;43.622;1.476;2023-11-19T08:12:06;13.93;;;11.83;;
15645;SDS011;7922;43.622;1.476;2023-11-19T08:14:31;12.53;;;11.23;;
15645;SDS011;7922;43.622;1.476;2023-11-19T08:16:56;11.73;;;9.70;;
15645;SDS011;7922;43.622;1.476;2023-11-19T08:19:21;10.77;;;9.67;;
15645;SDS011;7922;43.622;1.476;2023-11-19T08:21:47;10.90;;;9.33;;
15645;SDS011;7922;43.622;1.476;2023-11-19T08:24:12;10.80;;;9.70;;
15645;SDS011;7922;43.622;1.476;2023-11-19T08:26:37;10.90;;;9.80;;
15645;SDS011;7922;43.622;1.476;2023-11-19T08:29:03;11.13;;;9.87;;
15645;SDS011;7922;43.622;1.476;2023-11-19T08:31:28;13.30;;;10.03;;
15645;SDS011;7922;43.622;1.476;2023-11-19T08:33:53;11.90;;;10.73;;
15645;SDS011;7922;43.622;1.476;2023-11-19T08:36:18;11.13;;;9.93;;
15645;SDS011;7922;43.622;1.476;2023-11-19T08:38:44;11.50;;;9.90;;
15645;SDS011;7922;43.622;1.476;2023-11-19T08:41:09;12.17;;;9.80;;
15645;SDS011;7922;43.622;1.476;2023-11-19T08:43:34;12.03;;;10.83;;
15645;SDS011;7922;43.622;1.476;2023-11-19T08:46:00;13.23;;;11.83;;
15645;SDS011;7922;43.622;1.476;2023-11-19T08:48:25;13.70;;;11.37;;
15645;SDS011;7922;43.622;1.476;2023-11-19T08:50:50;11.60;;;10.27;;
15645;SDS011;7922;43.622;1.476;2023-11-19T08:53:15;12.20;;;11.00;;
15645;SDS011;7922;43.622;1.476;2023-11-19T08:55:41;13.03;;;11.10;;
15645;SDS011;7922;43.622;1.476;2023-11-19T08:58:06;16.40;;;11.73;;
15645;SDS011;7922;43.622;1.476;2023-11-19T09:00:31;11.50;;;10.40;;
15645;SDS011;7922;43.622;1.476;2023-11-19T09:02:56;11.97;;;10.67;;
15645;SDS011;7922;43.622;1.476;2023-11-19T09:05:22;13.47;;;11.00;;
15645;SDS011;7922;43.622;1.476;2023-11-19T09:07:47;12.37;;;10.93;;
15645;SDS011;7922;43.622;1.476;2023-11-19T09:10:12;11.90;;;10.53;;
15645;SDS011;7922;43.622;1.476;2023-11-19T09:12:37;11.27;;;10.10;;
15645;SDS011;7922;43.622;1.476;2023-11-19T09:15:03;11.13;;;10.00;;
15645;SDS011;7922;43.622;1.476;2023-11-19T09:17:28;11.77;;;10.57;;
15645;SDS011;7922;43.622;1.476;2023-11-19T09:19:54;12.03;;;10.73;;
15645;SDS011;7922;43.622;1.476;2023-11-19T09:22:19;12.53;;;10.87;;
15645;SDS011;7922;43.622;1.476;2023-11-19T09:24:44;13.17;;;11.63;;
15645;SDS011;7922;43.622;1.476;2023-11-19T09:27:09;11.93;;;10.73;;
15645;SDS011;7922;43.622;1.476;2023-11-19T09:29:35;12.33;;;10.50;;
15645;SDS011;7922;43.622;1.476;2023-11-19T09:32:00;11.50;;;10.30;;
15645;SDS011;7922;43.622;1.476;2023-11-19T09:34:25;12.60;;;11.30;;
15645;SDS011;7922;43.622;1.476;2023-11-19T09:36:50;11.30;;;10.03;;
15645;SDS011;7922;43.622;1.476;2023-11-19T09:39:16;11.90;;;10.20;;
15645;SDS011;7922;43.622;1.476;2023-11-19T09:41:41;13.20;;;10.40;;
15645;SDS011;7922;43.622;1.476;2023-11-19T09:44:06;11.57;;;10.37;;
15645;SDS011;7922;43.622;1.476;2023-11-19T09:46:33;10.53;;;9.43;;
15645;SDS011;7922;43.622;1.476;2023-11-19T09:49:01;11.10;;;9.87;;
15645;SDS011;7922;43.622;1.476;2023-11-19T09:51:28;10.13;;;9.13;;
15645;SDS011;7922;43.622;1.476;2023-11-19T09:53:53;12.90;;;9.23;;
15645;SDS011;7922;43.622;1.476;2023-11-19T09:56:18;12.03;;;9.80;;
15645;SDS011;7922;43.622;1.476;2023-11-19T09:58:54;12.60;;;9.37;;
15645;SDS011;7922;43.622;1.476;2023-11-19T10:01:19;13.50;;;10.27;;
15645;SDS011;7922;43.622;1.476;2023-11-19T10:03:44;12.43;;;10.03;;
15645;SDS011;7922;43.622;1.476;2023-11-19T10:06:12;10.73;;;9.63;;
15645;SDS011;7922;43.622;1.476;2023-11-19T10:08:39;10.77;;;9.47;;
15645;SDS011;7922;43.622;1.476;2023-11-19T10:11:06;10.77;;;9.43;;
15645;SDS011;7922;43.622;1.476;2023-11-19T10:13:33;11.27;;;10.10;;
15645;SDS011;7922;43.622;1.476;2023-11-19T10:16:03;11.37;;;10.23;;
15645;SDS011;7922;43.622;1.476;2023-11-19T10:18:29;11.00;;;9.80;;
15645;SDS011;7922;43.622;1.476;2023-11-19T10:20:54;11.77;;;9.53;;
15645;SDS011;7922;43.622;1.476;2023-11-19T10:23:20;14.60;;;10.53;;
15645;SDS011;7922;43.622;1.476;2023-11-19T10:25:45;10.83;;;9.73;;
15645;SDS011;7922;43.622;1.476;2023-11-19T10:28:11;10.93;;;9.83;;
15645;SDS011;7922;43.622;1.476;2023-11-19T10:30:36;11.80;;;9.80;;
15645;SDS011;7922;43.622;1.476;2023-11-19T10:35:50;11.97;;;10.40;;
15645;SDS011;7922;43.622;1.476;2023-11-19T10:38:16;10.70;;;9.57;;
15645;SDS011;7922;43.622;1.476;2023-11-19T10:40:41;10.93;;;9.83;;
15645;SDS011;7922;43.622;1.476;2023-11-19T10:43:07;12.03;;;10.53;;
15645;SDS011;7922;43.622;1.476;2023-11-19T10:45:33;12.47;;;9.77;;
15645;SDS011;7922;43.622;1.476;2023-11-19T10:48:03;14.33;;;10.20;;
15645;SDS011;7922;43.622;1.476;2023-11-19T10:50:28;13.13;;;10.33;;
15645;SDS011;7922;43.622;1.476;2023-11-19T10:52:56;10.83;;;9.30;;
15645;SDS011;7922;43.622;1.476;2023-11-19T10:55:22;9.70;;;8.33;;
15645;SDS011;7922;43.622;1.476;2023-11-19T10:57:51;10.17;;;8.13;;
15645;SDS011;7922;43.622;1.476;2023-11-19T11:00:21;10.37;;;8.37;;
15645;SDS011;7922;43.622;1.476;2023-11-19T11:02:49;8.87;;;7.57;;
15645;SDS011;7922;43.622;1.476;2023-11-19T11:05:19;10.03;;;8.00;;
15645;SDS011;7922;43.622;1.476;2023-11-19T11:07:47;9.07;;;7.50;;
15645;SDS011;7922;43.622;1.476;2023-11-19T11:10:16;9.83;;;7.37;;
15645;SDS011;7922;43.622;1.476;2023-11-19T11:12:42;6.90;;;5.87;;
15645;SDS011;7922;43.622;1.476;2023-11-19T11:15:09;9.57;;;6.27;;
15645;SDS011;7922;43.622;1.476;2023-11-19T11:17:36;10.53;;;6.53;;
15645;SDS011;7922;43.622;1.476;2023-11-19T11:20:03;9.60;;;6.17;;
15645;SDS011;7922;43.622;1.476;2023-11-19T11:22:30;7.00;;;5.50;;
15645;SDS011;7922;43.622;1.476;2023-11-19T11:25:21;6.33;;;5.73;;
15645;SDS011;7922;43.622;1.476;2023-11-19T11:28:17;7.30;;;5.93;;
15645;SDS011;7922;43.622;1.476;2023-11-19T11:30:55;8.27;;;6.57;;
15645;SDS011;7922;43.622;1.476;2023-11-19T11:33:38;7.10;;;5.80;;
15645;SDS011;7922;43.622;1.476;2023-11-19T11:36:20;7.13;;;6.30;;
15645;SDS011;7922;43.622;1.476;2023-11-19T11:38:50;6.17;;;5.57;;
15645;SDS011;7922;43.622;1.476;2023-11-19T11:41:19;7.43;;;6.43;;
15645;SDS011;7922;43.622;1.476;2023-11-19T11:49:00;8.13;;;6.47;;
15645;SDS011;7922;43.622;1.476;2023-11-19T11:54:26;9.00;;;6.73;;
15645;SDS011;7922;43.622;1.476;2023-11-19T12:02:07;7.80;;;6.80;;
15645;SDS011;7922;43.622;1.476;2023-11-19T12:04:34;8.73;;;6.40;;
15645;SDS011;7922;43.622;1.476;2023-11-19T12:07:12;9.10;;;6.60;;
15645;SDS011;7922;43.622;1.476;2023-11-19T12:09:40;10.00;;;6.97;;
15645;SDS011;7922;43.622;1.476;2023-11-19T12:12:17;10.23;;;7.40;;
15645;SDS011;7922;43.622;1.476;2023-11-19T12:15:00;9.77;;;7.03;;
15645;SDS011;7922;43.622;1.476;2023-11-19T12:20:03;12.67;;;8.03;;
15645;SDS011;7922;43.622;1.476;2023-11-19T12:22:30;8.43;;;7.53;;
15645;SDS011;7922;43.622;1.476;2023-11-19T12:24:55;7.83;;;6.80;;
15645;SDS011;7922;43.622;1.476;2023-11-19T12:27:21;7.73;;;6.93;;
15645;SDS011;7922;43.622;1.476;2023-11-19T12:29:47;7.97;;;7.17;;
15645;SDS011;7922;43.622;1.476;2023-11-19T12:32:12;10.57;;;7.83;;
15645;SDS011;7922;43.622;1.476;2023-11-19T12:34:40;8.13;;;6.83;;
15645;SDS011;7922;43.622;1.476;2023-11-19T12:37:05;9.77;;;7.40;;
15645;SDS011;7922;43.622;1.476;2023-11-19T12:39:31;10.50;;;7.70;;
15645;SDS011;7922;43.622;1.476;2023-11-19T12:41:57;9.47;;;7.37;;
15645;SDS011;7922;43.622;1.476;2023-11-19T12:44:23;7.23;;;6.53;;
15645;SDS011;7922;43.622;1.476;2023-11-19T12:46:58;7.03;;;6.20;;
15645;SDS011;7922;43.622;1.476;2023-11-19T12:49:33;8.43;;;5.87;;
15645;SDS011;7922;43.622;1.476;2023-11-19T12:51:59;7.27;;;5.93;;
15645;SDS011;7922;43.622;1.476;2023-11-19T12:54:37;5.93;;;5.30;;
15645;SDS011;7922;43.622;1.476;2023-11-19T12:57:03;6.30;;;5.70;;
15645;SDS011;7922;43.622;1.476;2023-11-19T12:59:29;7.33;;;5.43;;
15645;SDS011;7922;43.622;1.476;2023-11-19T13:01:57;8.33;;;6.17;;
15645;SDS011;7922;43.622;1.476;2023-11-19T13:04:23;8.63;;;5.67;;
15645;SDS011;7922;43.622;1.476;2023-11-19T13:06:52;6.20;;;5.23;;
15645;SDS011;7922;43.622;1.476;2023-11-19T13:09:24;6.40;;;5.80;;
15645;SDS011;7922;43.622;1.476;2023-11-19T13:11:50;7.50;;;6.00;;
15645;SDS011;7922;43.622;1.476;2023-11-19T13:14:16;6.10;;;5.23;;
15645;SDS011;7922;43.622;1.476;2023-11-19T13:16:41;7.23;;;5.63;;
15645;SDS011;7922;43.622;1.476;2023-11-19T13:19:06;6.30;;;5.70;;
15645;SDS011;7922;43.622;1.476;2023-11-19T13:21:32;6.67;;;5.43;;
15645;SDS011;7922;43.622;1.476;2023-11-19T13:23:57;6.43;;;5.87;;
15645;SDS011;7922;43.622;1.476;2023-11-19T13:26:22;6.20;;;5.33;;
15645;SDS011;7922;43.622;1.476;2023-11-19T13:28:48;6.83;;;5.17;;
15645;SDS011;7922;43.622;1.476;2023-11-19T13:31:13;8.47;;;5.97;;
15645;SDS011;7922;43.622;1.476;2023-11-19T13:33:38;6.50;;;5.60;;
15645;SDS011;7922;43.622;1.476;2023-11-19T13:36:04;6.63;;;5.40;;
15645;SDS011;7922;43.622;1.476;2023-11-19T13:38:29;6.93;;;5.20;;
15645;SDS011;7922;43.622;1.476;2023-11-19T13:40:55;6.37;;;5.77;;
15645;SDS011;7922;43.622;1.476;2023-11-19T13:43:20;6.63;;;5.10;;
15645;SDS011;7922;43.622;1.476;2023-11-19T13:45:45;5.80;;;5.10;;
15645;SDS011;7922;43.622;1.476;2023-11-19T13:48:11;7.10;;;5.90;;
15645;SDS011;7922;43.622;1.476;2023-11-19T13:50:36;6.93;;;5.63;;
15645;SDS011;7922;43.622;1.476;2023-11-19T13:53:01;6.23;;;5.47;;
15645;SDS011;7922;43.622;1.476;2023-11-19T13:55:26;7.03;;;5.90;;
15645;SDS011;7922;43.622;1.476;2023-11-19T13:57:52;6.40;;;5.40;;
15645;SDS011;7922;43.622;1.476;2023-11-19T14:00:17;5.63;;;4.47;;
15645;SDS011;7922;43.622;1.476;2023-11-19T14:02:42;6.73;;;5.10;;
15645;SDS011;7922;43.622;1.476;2023-11-19T14:05:08;6.13;;;5.27;;
15645;SDS011;7922;43.622;1.476;2023-11-19T14:07:34;6.40;;;4.00;;
15645;SDS011;7922;43.622;1.476;2023-11-19T14:10:00;4.90;;;3.50;;
15645;SDS011;7922;43.622;1.476;2023-11-19T14:12:25;5.63;;;4.03;;
15645;SDS011;7922;43.622;1.476;2023-11-19T14:14:51;5.03;;;3.90;;
15645;SDS011;7922;43.622;1.476;2023-11-19T14:17:16;4.83;;;3.80;;
15645;SDS011;7922;43.622;1.476;2023-11-19T14:19:42;4.13;;;3.70;;
15645;SDS011;7922;43.622;1.476;2023-11-19T14:22:07;4.27;;;3.57;;
15645;SDS011;7922;43.622;1.476;2023-11-19T14:24:33;4.47;;;3.27;;
15645;SDS011;7922;43.622;1.476;2023-11-19T14:26:58;3.90;;;3.10;;
15645;SDS011;7922;43.622;1.476;2023-11-19T14:29:23;4.00;;;3.40;;
15645;SDS011;7922;43.622;1.476;2023-11-19T14:31:49;4.77;;;3.23;;
15645;SDS011;7922;43.622;1.476;2023-11-19T14:34:14;6.03;;;3.70;;
15645;SDS011;7922;43.622;1.476;2023-11-19T14:36:39;4.07;;;3.40;;
15645;SDS011;7922;43.622;1.476;2023-11-19T14:39:05;4.93;;;3.93;;
15645;SDS011;7922;43.622;1.476;2023-11-19T14:41:30;5.97;;;3.73;;
15645;SDS011;7922;43.622;1.476;2023-11-19T14:43:55;4.83;;;3.90;;
15645;SDS011;7922;43.622;1.476;2023-11-19T14:46:20;5.80;;;3.50;;
15645;SDS011;7922;43.622;1.476;2023-11-19T14:48:46;5.90;;;3.50;;
15645;SDS011;7922;43.622;1.476;2023-11-19T14:51:11;4.23;;;3.40;;
15645;SDS011;7922;43.622;1.476;2023-11-19T14:53:36;5.43;;;3.80;;
15645;SDS011;7922;43.622;1.476;2023-11-19T14:56:01;5.50;;;3.83;;
15645;SDS011;7922;43.622;1.476;2023-11-19T14:58:27;4.37;;;3.50;;
15645;SDS011;7922;43.622;1.476;2023-11-19T15:00:52;5.67;;;3.50;;